sensor_id;sensor_type;location;lat;lon;timestamp;temperature;humidity
34231;DHT22;21574;51.538;-0.084;2022-09-27T00:00:30;22.80;55.40
34231;DHT22;21574;51.538;-0.084;2022-09-27T00:02:56;22.80;55.30
34231;DHT22;21574;51.538;-0.084;2022-09-27T00:05:22;22.80;55.30
34231;DHT22;21574;51.538;-0.084;2022-09-27T00:07:48;22.80;55.30
34231;DHT22;21574;51.538;-0.084;2022-09-27T00:10:14;22.80;55.40
34231;DHT22;21574;51.538;-0.084;2022-09-27T00:12:39;22.80;55.40
34231;DHT22;21574;51.538;-0.084;2022-09-27T00:15:06;22.80;54.70
34231;DHT22;21574;51.538;-0.084;2022-09-27T00:17:32;22.80;54.80
34231;DHT22;21574;51.538;-0.084;2022-09-27T00:20:01;22.80;55.30
34231;DHT22;21574;51.538;-0.084;2022-09-27T00:22:27;22.80;55.30
34231;DHT22;21574;51.538;-0.084;2022-09-27T00:24:53;22.80;54.70
34231;DHT22;21574;51.538;-0.084;2022-09-27T00:27:19;22.80;55.40
34231;DHT22;21574;51.538;-0.084;2022-09-27T00:29:45;22.80;54.70
34231;DHT22;21574;51.538;-0.084;2022-09-27T00:32:13;22.80;54.60
34231;DHT22;21574;51.538;-0.084;2022-09-27T00:34:39;22.80;55.70
34231;DHT22;21574;51.538;-0.084;2022-09-27T00:37:05;22.80;55.60
34231;DHT22;21574;51.538;-0.084;2022-09-27T00:39:31;22.80;55.60
34231;DHT22;21574;51.538;-0.084;2022-09-27T00:41:56;22.80;55.40
34231;DHT22;21574;51.538;-0.084;2022-09-27T00:52:09;22.70;54.50
34231;DHT22;21574;51.538;-0.084;2022-09-27T00:54:38;22.70;54.40
34231;DHT22;21574;51.538;-0.084;2022-09-27T00:57:05;22.70;54.80
34231;DHT22;21574;51.538;-0.084;2022-09-27T00:59:38;22.70;54.60
34231;DHT22;21574;51.538;-0.084;2022-09-27T01:02:06;22.70;55.10
34231;DHT22;21574;51.538;-0.084;2022-09-27T01:04:33;22.70;55.50
34231;DHT22;21574;51.538;-0.084;2022-09-27T01:07:00;22.80;55.50
34231;DHT22;21574;51.538;-0.084;2022-09-27T01:09:26;22.80;55.50
34231;DHT22;21574;51.538;-0.084;2022-09-27T01:15:02;22.80;55.50
34231;DHT22;21574;51.538;-0.084;2022-09-27T01:33:52;22.70;54.70
34231;DHT22;21574;51.538;-0.084;2022-09-27T01:36:26;22.70;54.80
34231;DHT22;21574;51.538;-0.084;2022-09-27T01:42:26;22.70;54.60
34231;DHT22;21574;51.538;-0.084;2022-09-27T01:48:16;22.70;54.80
34231;DHT22;21574;51.538;-0.084;2022-09-27T01:50:51;22.70;55.00
34231;DHT22;21574;51.538;-0.084;2022-09-27T01:53:29;22.70;54.60
34231;DHT22;21574;51.538;-0.084;2022-09-27T01:55:56;22.70;54.40
34231;DHT22;21574;51.538;-0.084;2022-09-27T01:58:33;22.70;54.50
34231;DHT22;21574;51.538;-0.084;2022-09-27T02:01:03;22.70;54.50
34231;DHT22;21574;51.538;-0.084;2022-09-27T02:03:35;22.70;54.50
34231;DHT22;21574;51.538;-0.084;2022-09-27T02:06:13;22.70;54.60
34231;DHT22;21574;51.538;-0.084;2022-09-27T02:08:41;22.70;54.60
34231;DHT22;21574;51.538;-0.084;2022-09-27T02:11:10;22.70;54.80
34231;DHT22;21574;51.538;-0.084;2022-09-27T02:16:51;22.70;55.00
34231;DHT22;21574;51.538;-0.084;2022-09-27T02:24:53;22.70;55.10
34231;DHT22;21574;51.538;-0.084;2022-09-27T02:27:27;22.70;55.00
34231;DHT22;21574;51.538;-0.084;2022-09-27T02:30:05;22.70;55.00
34231;DHT22;21574;51.538;-0.084;2022-09-27T02:32:31;22.70;55.00
34231;DHT22;21574;51.538;-0.084;2022-09-27T02:35:00;22.70;55.00
34231;DHT22;21574;51.538;-0.084;2022-09-27T02:37:28;22.70;54.90
34231;DHT22;21574;51.538;-0.084;2022-09-27T02:39:54;22.70;54.30
34231;DHT22;21574;51.538;-0.084;2022-09-27T02:42:21;22.70;54.20
34231;DHT22;21574;51.538;-0.084;2022-09-27T02:44:47;22.60;54.10
34231;DHT22;21574;51.538;-0.084;2022-09-27T02:53:32;22.60;54.00
34231;DHT22;21574;51.538;-0.084;2022-09-27T03:02:13;22.60;54.00
34231;DHT22;21574;51.538;-0.084;2022-09-27T03:04:51;22.60;53.90
34231;DHT22;21574;51.538;-0.084;2022-09-27T03:07:19;22.60;54.50
34231;DHT22;21574;51.538;-0.084;2022-09-27T03:09:51;22.60;54.30
34231;DHT22;21574;51.538;-0.084;2022-09-27T03:12:18;22.60;54.50
34231;DHT22;21574;51.538;-0.084;2022-09-27T03:14:47;22.70;54.80
34231;DHT22;21574;51.538;-0.084;2022-09-27T03:17:13;22.60;54.70
34231;DHT22;21574;51.538;-0.084;2022-09-27T03:19:39;22.70;54.80
34231;DHT22;21574;51.538;-0.084;2022-09-27T03:22:05;22.60;54.80
34231;DHT22;21574;51.538;-0.084;2022-09-27T03:24:31;22.70;54.90
34231;DHT22;21574;51.538;-0.084;2022-09-27T03:26:57;22.70;54.80
34231;DHT22;21574;51.538;-0.084;2022-09-27T03:29:22;22.70;54.80
34231;DHT22;21574;51.538;-0.084;2022-09-27T03:31:48;22.70;54.80
34231;DHT22;21574;51.538;-0.084;2022-09-27T03:34:13;22.60;54.80
34231;DHT22;21574;51.538;-0.084;2022-09-27T03:36:39;22.60;54.30
34231;DHT22;21574;51.538;-0.084;2022-09-27T03:39:05;22.60;54.80
34231;DHT22;21574;51.538;-0.084;2022-09-27T03:41:30;22.60;54.00
34231;DHT22;21574;51.538;-0.084;2022-09-27T03:43:56;22.60;54.10
34231;DHT22;21574;51.538;-0.084;2022-09-27T03:46:24;22.60;53.90
34231;DHT22;21574;51.538;-0.084;2022-09-27T03:48:50;22.60;53.90
34231;DHT22;21574;51.538;-0.084;2022-09-27T03:51:15;22.60;54.00
34231;DHT22;21574;51.538;-0.084;2022-09-27T03:53:41;22.60;53.80
34231;DHT22;21574;51.538;-0.084;2022-09-27T03:56:07;22.60;53.80
34231;DHT22;21574;51.538;-0.084;2022-09-27T03:58:33;22.60;54.00
34231;DHT22;21574;51.538;-0.084;2022-09-27T04:00:59;22.60;54.00
34231;DHT22;21574;51.538;-0.084;2022-09-27T04:03:24;22.60;53.90
34231;DHT22;21574;51.538;-0.084;2022-09-27T04:05:52;22.60;53.90
34231;DHT22;21574;51.538;-0.084;2022-09-27T04:08:18;22.60;53.90
34231;DHT22;21574;51.538;-0.084;2022-09-27T04:10:45;22.60;54.20
34231;DHT22;21574;51.538;-0.084;2022-09-27T04:13:10;22.60;54.40
34231;DHT22;21574;51.538;-0.084;2022-09-27T04:15:36;22.60;54.50
34231;DHT22;21574;51.538;-0.084;2022-09-27T04:18:04;22.60;54.50
34231;DHT22;21574;51.538;-0.084;2022-09-27T04:20:29;22.60;54.50
34231;DHT22;21574;51.538;-0.084;2022-09-27T04:22:55;22.60;54.50
34231;DHT22;21574;51.538;-0.084;2022-09-27T04:25:20;22.60;54.40
34231;DHT22;21574;51.538;-0.084;2022-09-27T04:27:47;22.60;54.40
34231;DHT22;21574;51.538;-0.084;2022-09-27T04:30:14;22.60;54.40
34231;DHT22;21574;51.538;-0.084;2022-09-27T04:32:43;22.60;54.30
34231;DHT22;21574;51.538;-0.084;2022-09-27T04:35:10;22.60;54.30
34231;DHT22;21574;51.538;-0.084;2022-09-27T04:37:55;22.60;54.30
34231;DHT22;21574;51.538;-0.084;2022-09-27T04:40:21;22.60;54.30
34231;DHT22;21574;51.538;-0.084;2022-09-27T04:42:48;22.60;54.90
34231;DHT22;21574;51.538;-0.084;2022-09-27T04:45:14;22.60;54.30
34231;DHT22;21574;51.538;-0.084;2022-09-27T04:47:46;22.60;54.30
34231;DHT22;21574;51.538;-0.084;2022-09-27T04:50:13;22.60;54.30
34231;DHT22;21574;51.538;-0.084;2022-09-27T04:52:39;22.60;54.40
34231;DHT22;21574;51.538;-0.084;2022-09-27T04:55:06;22.60;54.30
34231;DHT22;21574;51.538;-0.084;2022-09-27T04:57:32;22.70;54.00
34231;DHT22;21574;51.538;-0.084;2022-09-27T04:59:58;22.60;53.90
34231;DHT22;21574;51.538;-0.084;2022-09-27T05:02:25;22.60;54.10
34231;DHT22;21574;51.538;-0.084;2022-09-27T05:04:52;22.60;53.90
34231;DHT22;21574;51.538;-0.084;2022-09-27T05:07:17;22.60;53.90
34231;DHT22;21574;51.538;-0.084;2022-09-27T05:09:44;22.60;53.80
34231;DHT22;21574;51.538;-0.084;2022-09-27T05:12:09;22.60;53.90
34231;DHT22;21574;51.538;-0.084;2022-09-27T05:14:35;22.60;53.80
34231;DHT22;21574;51.538;-0.084;2022-09-27T05:17:01;22.60;54.00
34231;DHT22;21574;51.538;-0.084;2022-09-27T05:19:27;22.60;53.90
34231;DHT22;21574;51.538;-0.084;2022-09-27T05:21:53;22.60;53.90
34231;DHT22;21574;51.538;-0.084;2022-09-27T05:24:18;22.60;54.00
34231;DHT22;21574;51.538;-0.084;2022-09-27T05:26:46;22.60;54.10
34231;DHT22;21574;51.538;-0.084;2022-09-27T05:29:11;22.60;54.10
34231;DHT22;21574;51.538;-0.084;2022-09-27T05:31:37;22.60;54.10
34231;DHT22;21574;51.538;-0.084;2022-09-27T05:34:03;22.60;54.10
34231;DHT22;21574;51.538;-0.084;2022-09-27T05:36:29;22.60;54.20
34231;DHT22;21574;51.538;-0.084;2022-09-27T05:38:55;22.70;54.40
34231;DHT22;21574;51.538;-0.084;2022-09-27T05:41:20;22.60;55.00
34231;DHT22;21574;51.538;-0.084;2022-09-27T05:43:46;22.70;55.20
34231;DHT22;21574;51.538;-0.084;2022-09-27T05:46:11;22.70;54.80
34231;DHT22;21574;51.538;-0.084;2022-09-27T05:48:37;22.70;54.70
34231;DHT22;21574;51.538;-0.084;2022-09-27T05:51:03;22.70;54.90
34231;DHT22;21574;51.538;-0.084;2022-09-27T05:53:29;22.70;55.60
34231;DHT22;21574;51.538;-0.084;2022-09-27T05:55:59;22.70;57.10
34231;DHT22;21574;51.538;-0.084;2022-09-27T05:58:25;22.70;58.20
34231;DHT22;21574;51.538;-0.084;2022-09-27T06:00:52;22.70;58.30
34231;DHT22;21574;51.538;-0.084;2022-09-27T06:03:18;22.70;60.40
34231;DHT22;21574;51.538;-0.084;2022-09-27T06:05:44;22.70;58.90
34231;DHT22;21574;51.538;-0.084;2022-09-27T06:08:11;22.70;59.00
34231;DHT22;21574;51.538;-0.084;2022-09-27T06:10:37;22.70;59.90
34231;DHT22;21574;51.538;-0.084;2022-09-27T06:13:06;22.70;59.40
34231;DHT22;21574;51.538;-0.084;2022-09-27T06:15:33;22.70;59.70
34231;DHT22;21574;51.538;-0.084;2022-09-27T06:18:06;22.70;60.40
34231;DHT22;21574;51.538;-0.084;2022-09-27T06:20:34;22.70;60.60
34231;DHT22;21574;51.538;-0.084;2022-09-27T06:23:08;22.70;60.40
34231;DHT22;21574;51.538;-0.084;2022-09-27T06:25:35;22.70;60.70
34231;DHT22;21574;51.538;-0.084;2022-09-27T06:28:01;22.70;60.40
34231;DHT22;21574;51.538;-0.084;2022-09-27T06:30:28;22.80;60.20
34231;DHT22;21574;51.538;-0.084;2022-09-27T06:32:58;22.70;60.10
34231;DHT22;21574;51.538;-0.084;2022-09-27T06:35:25;22.80;60.30
34231;DHT22;21574;51.538;-0.084;2022-09-27T06:37:51;22.70;59.80
34231;DHT22;21574;51.538;-0.084;2022-09-27T06:40:17;22.80;59.60
34231;DHT22;21574;51.538;-0.084;2022-09-27T06:42:43;22.70;59.30
34231;DHT22;21574;51.538;-0.084;2022-09-27T06:45:09;22.80;59.20
34231;DHT22;21574;51.538;-0.084;2022-09-27T06:47:36;22.70;59.90
34231;DHT22;21574;51.538;-0.084;2022-09-27T06:50:02;22.80;59.30
34231;DHT22;21574;51.538;-0.084;2022-09-27T06:52:34;22.80;59.10
34231;DHT22;21574;51.538;-0.084;2022-09-27T06:55:02;22.80;59.00
34231;DHT22;21574;51.538;-0.084;2022-09-27T06:57:27;22.70;58.60
34231;DHT22;21574;51.538;-0.084;2022-09-27T07:00:12;22.70;58.40
34231;DHT22;21574;51.538;-0.084;2022-09-27T07:02:52;22.70;58.30
34231;DHT22;21574;51.538;-0.084;2022-09-27T07:05:18;22.70;58.30
34231;DHT22;21574;51.538;-0.084;2022-09-27T07:07:44;22.70;58.20
34231;DHT22;21574;51.538;-0.084;2022-09-27T07:10:10;22.70;58.40
34231;DHT22;21574;51.538;-0.084;2022-09-27T07:12:36;22.70;58.10
34231;DHT22;21574;51.538;-0.084;2022-09-27T07:15:03;22.80;57.90
34231;DHT22;21574;51.538;-0.084;2022-09-27T07:17:29;22.80;58.00
34231;DHT22;21574;51.538;-0.084;2022-09-27T07:19:55;22.70;58.30
34231;DHT22;21574;51.538;-0.084;2022-09-27T07:22:21;22.80;59.20
34231;DHT22;21574;51.538;-0.084;2022-09-27T07:24:46;22.80;59.40
34231;DHT22;21574;51.538;-0.084;2022-09-27T07:27:12;22.80;59.70
34231;DHT22;21574;51.538;-0.084;2022-09-27T07:29:39;22.70;60.10
34231;DHT22;21574;51.538;-0.084;2022-09-27T07:32:05;22.70;59.70
34231;DHT22;21574;51.538;-0.084;2022-09-27T07:34:32;22.70;59.60
34231;DHT22;21574;51.538;-0.084;2022-09-27T07:36:59;22.70;59.60
34231;DHT22;21574;51.538;-0.084;2022-09-27T07:39:25;22.70;59.80
34231;DHT22;21574;51.538;-0.084;2022-09-27T07:41:50;22.70;59.50
34231;DHT22;21574;51.538;-0.084;2022-09-27T07:44:16;22.70;59.40
34231;DHT22;21574;51.538;-0.084;2022-09-27T07:46:42;22.80;59.50
34231;DHT22;21574;51.538;-0.084;2022-09-27T07:49:08;22.70;59.40
34231;DHT22;21574;51.538;-0.084;2022-09-27T07:51:33;22.70;59.30
34231;DHT22;21574;51.538;-0.084;2022-09-27T07:53:59;22.70;59.00
34231;DHT22;21574;51.538;-0.084;2022-09-27T07:56:28;22.70;58.50
34231;DHT22;21574;51.538;-0.084;2022-09-27T07:58:53;22.70;58.40
34231;DHT22;21574;51.538;-0.084;2022-09-27T08:01:19;22.80;58.40
34231;DHT22;21574;51.538;-0.084;2022-09-27T08:03:45;22.70;58.00
34231;DHT22;21574;51.538;-0.084;2022-09-27T08:06:11;22.80;58.10
34231;DHT22;21574;51.538;-0.084;2022-09-27T08:08:37;22.70;58.00
34231;DHT22;21574;51.538;-0.084;2022-09-27T08:11:13;22.70;57.80
34231;DHT22;21574;51.538;-0.084;2022-09-27T08:13:41;22.80;57.90
34231;DHT22;21574;51.538;-0.084;2022-09-27T08:16:06;22.70;57.70
34231;DHT22;21574;51.538;-0.084;2022-09-27T08:18:32;22.80;57.80
34231;DHT22;21574;51.538;-0.084;2022-09-27T08:20:58;22.80;57.60
34231;DHT22;21574;51.538;-0.084;2022-09-27T08:23:24;22.70;57.70
34231;DHT22;21574;51.538;-0.084;2022-09-27T08:25:54;22.80;57.60
34231;DHT22;21574;51.538;-0.084;2022-09-27T08:28:21;22.80;57.60
34231;DHT22;21574;51.538;-0.084;2022-09-27T08:30:50;22.80;57.60
34231;DHT22;21574;51.538;-0.084;2022-09-27T08:33:15;22.70;57.50
34231;DHT22;21574;51.538;-0.084;2022-09-27T08:35:41;22.70;57.30
34231;DHT22;21574;51.538;-0.084;2022-09-27T08:38:09;22.80;57.30
34231;DHT22;21574;51.538;-0.084;2022-09-27T08:46:13;22.80;57.00
34231;DHT22;21574;51.538;-0.084;2022-09-27T08:48:43;22.80;57.00
34231;DHT22;21574;51.538;-0.084;2022-09-27T08:51:11;22.80;56.90
34231;DHT22;21574;51.538;-0.084;2022-09-27T08:54:00;22.70;56.90
34231;DHT22;21574;51.538;-0.084;2022-09-27T08:56:27;22.70;56.70
34231;DHT22;21574;51.538;-0.084;2022-09-27T09:01:37;22.80;56.80
34231;DHT22;21574;51.538;-0.084;2022-09-27T09:04:03;22.70;56.80
34231;DHT22;21574;51.538;-0.084;2022-09-27T09:09:13;22.80;56.70
34231;DHT22;21574;51.538;-0.084;2022-09-27T09:11:59;22.70;56.60
34231;DHT22;21574;51.538;-0.084;2022-09-27T09:31:23;22.80;56.40
34231;DHT22;21574;51.538;-0.084;2022-09-27T09:33:59;22.80;56.40
34231;DHT22;21574;51.538;-0.084;2022-09-27T09:39:15;22.80;56.30
34231;DHT22;21574;51.538;-0.084;2022-09-27T09:42:53;22.80;56.20
34231;DHT22;21574;51.538;-0.084;2022-09-27T09:45:03;22.80;56.20
34231;DHT22;21574;51.538;-0.084;2022-09-27T09:50:22;22.80;56.10
34231;DHT22;21574;51.538;-0.084;2022-09-27T09:53:12;22.80;56.10
34231;DHT22;21574;51.538;-0.084;2022-09-27T09:55:39;22.80;56.00
34231;DHT22;21574;51.538;-0.084;2022-09-27T09:58:34;22.80;56.00
34231;DHT22;21574;51.538;-0.084;2022-09-27T10:01:13;22.80;56.20
34231;DHT22;21574;51.538;-0.084;2022-09-27T10:03:41;22.80;56.10
34231;DHT22;21574;51.538;-0.084;2022-09-27T10:06:09;22.80;56.10
34231;DHT22;21574;51.538;-0.084;2022-09-27T10:08:36;22.80;56.00
34231;DHT22;21574;51.538;-0.084;2022-09-27T10:11:01;22.80;56.00
34231;DHT22;21574;51.538;-0.084;2022-09-27T10:13:32;22.80;56.00
34231;DHT22;21574;51.538;-0.084;2022-09-27T10:16:13;22.80;55.60
34231;DHT22;21574;51.538;-0.084;2022-09-27T10:18:41;22.80;55.80
34231;DHT22;21574;51.538;-0.084;2022-09-27T10:21:29;22.80;55.70
34231;DHT22;21574;51.538;-0.084;2022-09-27T10:24:13;22.80;55.70
34231;DHT22;21574;51.538;-0.084;2022-09-27T10:26:41;22.80;55.60
34231;DHT22;21574;51.538;-0.084;2022-09-27T10:31:43;22.80;55.50
34231;DHT22;21574;51.538;-0.084;2022-09-27T10:34:39;22.80;55.50
34231;DHT22;21574;51.538;-0.084;2022-09-27T10:39:38;22.80;55.50
34231;DHT22;21574;51.538;-0.084;2022-09-27T10:44:57;22.80;55.50
34231;DHT22;21574;51.538;-0.084;2022-09-27T10:47:24;22.80;55.50
34231;DHT22;21574;51.538;-0.084;2022-09-27T10:49:52;22.80;55.50
34231;DHT22;21574;51.538;-0.084;2022-09-27T10:52:26;22.80;55.50
34231;DHT22;21574;51.538;-0.084;2022-09-27T10:54:57;22.80;55.60
34231;DHT22;21574;51.538;-0.084;2022-09-27T10:57:26;22.80;55.50
34231;DHT22;21574;51.538;-0.084;2022-09-27T10:59:58;22.80;55.50
34231;DHT22;21574;51.538;-0.084;2022-09-27T11:02:35;22.80;55.50
34231;DHT22;21574;51.538;-0.084;2022-09-27T11:07:53;22.80;55.50
34231;DHT22;21574;51.538;-0.084;2022-09-27T11:10:30;22.80;55.50
34231;DHT22;21574;51.538;-0.084;2022-09-27T11:13:17;22.80;55.40
34231;DHT22;21574;51.538;-0.084;2022-09-27T11:30:06;22.80;55.50
34231;DHT22;21574;51.538;-0.084;2022-09-27T11:32:39;22.80;55.20
34231;DHT22;21574;51.538;-0.084;2022-09-27T11:38:23;22.80;55.10
34231;DHT22;21574;51.538;-0.084;2022-09-27T11:47:03;22.80;55.10
34231;DHT22;21574;51.538;-0.084;2022-09-27T11:50:15;22.80;55.10
34231;DHT22;21574;51.538;-0.084;2022-09-27T11:52:58;22.80;55.20
34231;DHT22;21574;51.538;-0.084;2022-09-27T11:55:42;22.80;55.10
34231;DHT22;21574;51.538;-0.084;2022-09-27T11:58:24;22.80;55.20
34231;DHT22;21574;51.538;-0.084;2022-09-27T12:06:11;22.80;55.20
34231;DHT22;21574;51.538;-0.084;2022-09-27T12:09:14;22.80;55.10
34231;DHT22;21574;51.538;-0.084;2022-09-27T12:11:50;22.80;54.90
34231;DHT22;21574;51.538;-0.084;2022-09-27T12:16:57;22.80;55.10
34231;DHT22;21574;51.538;-0.084;2022-09-27T12:19:31;22.80;55.10
34231;DHT22;21574;51.538;-0.084;2022-09-27T12:22:01;22.80;55.00
34231;DHT22;21574;51.538;-0.084;2022-09-27T12:24:28;22.80;54.80
34231;DHT22;21574;51.538;-0.084;2022-09-27T12:26:59;22.90;54.80
34231;DHT22;21574;51.538;-0.084;2022-09-27T12:29:31;22.80;54.80
34231;DHT22;21574;51.538;-0.084;2022-09-27T12:32:17;22.80;54.80
34231;DHT22;21574;51.538;-0.084;2022-09-27T12:36:08;22.80;54.80
34231;DHT22;21574;51.538;-0.084;2022-09-27T12:38:07;22.80;54.70
34231;DHT22;21574;51.538;-0.084;2022-09-27T12:40:38;22.80;54.70
34231;DHT22;21574;51.538;-0.084;2022-09-27T12:59:59;22.80;54.80
34231;DHT22;21574;51.538;-0.084;2022-09-27T13:13:55;22.90;54.60
34231;DHT22;21574;51.538;-0.084;2022-09-27T13:16:21;22.80;54.60
34231;DHT22;21574;51.538;-0.084;2022-09-27T13:32:37;22.80;54.50
34231;DHT22;21574;51.538;-0.084;2022-09-27T13:35:29;22.80;54.40
34231;DHT22;21574;51.538;-0.084;2022-09-27T13:37:56;22.80;54.50
34231;DHT22;21574;51.538;-0.084;2022-09-27T13:40:32;22.80;54.40
34231;DHT22;21574;51.538;-0.084;2022-09-27T13:45:40;22.80;54.50
34231;DHT22;21574;51.538;-0.084;2022-09-27T13:48:20;22.80;54.50
34231;DHT22;21574;51.538;-0.084;2022-09-27T13:50:54;22.80;54.50
34231;DHT22;21574;51.538;-0.084;2022-09-27T13:53:37;22.80;54.50
34231;DHT22;21574;51.538;-0.084;2022-09-27T13:56:04;22.80;54.50
34231;DHT22;21574;51.538;-0.084;2022-09-27T13:58:42;22.80;54.40
34231;DHT22;21574;51.538;-0.084;2022-09-27T14:01:29;22.90;54.50
34231;DHT22;21574;51.538;-0.084;2022-09-27T14:04:19;22.80;54.40
34231;DHT22;21574;51.538;-0.084;2022-09-27T14:06:50;22.80;54.40
34231;DHT22;21574;51.538;-0.084;2022-09-27T14:09:20;22.80;54.30
34231;DHT22;21574;51.538;-0.084;2022-09-27T14:11:52;22.90;54.50
34231;DHT22;21574;51.538;-0.084;2022-09-27T14:14:22;22.90;54.30
34231;DHT22;21574;51.538;-0.084;2022-09-27T14:16:49;22.80;54.30
34231;DHT22;21574;51.538;-0.084;2022-09-27T14:19:18;22.80;54.30
34231;DHT22;21574;51.538;-0.084;2022-09-27T14:21:44;22.90;54.30
34231;DHT22;21574;51.538;-0.084;2022-09-27T14:26:49;22.80;54.30
34231;DHT22;21574;51.538;-0.084;2022-09-27T14:29:20;22.80;54.30
34231;DHT22;21574;51.538;-0.084;2022-09-27T14:32:02;22.80;54.30
34231;DHT22;21574;51.538;-0.084;2022-09-27T14:34:28;22.90;54.40
34231;DHT22;21574;51.538;-0.084;2022-09-27T14:36:54;22.90;54.40
34231;DHT22;21574;51.538;-0.084;2022-09-27T14:39:40;22.90;54.30
34231;DHT22;21574;51.538;-0.084;2022-09-27T14:42:21;22.80;54.80
34231;DHT22;21574;51.538;-0.084;2022-09-27T14:44:48;22.80;54.30
34231;DHT22;21574;51.538;-0.084;2022-09-27T14:47:20;22.80;54.30
34231;DHT22;21574;51.538;-0.084;2022-09-27T14:49:55;22.80;54.30
34231;DHT22;21574;51.538;-0.084;2022-09-27T14:52:23;22.80;54.20
34231;DHT22;21574;51.538;-0.084;2022-09-27T14:54:58;22.80;54.30
34231;DHT22;21574;51.538;-0.084;2022-09-27T14:57:25;22.80;54.20
34231;DHT22;21574;51.538;-0.084;2022-09-27T14:59:52;22.90;54.30
34231;DHT22;21574;51.538;-0.084;2022-09-27T15:02:20;22.80;54.20
34231;DHT22;21574;51.538;-0.084;2022-09-27T15:04:49;22.90;54.30
34231;DHT22;21574;51.538;-0.084;2022-09-27T15:07:16;22.90;54.30
34231;DHT22;21574;51.538;-0.084;2022-09-27T15:09:43;22.90;54.30
34231;DHT22;21574;51.538;-0.084;2022-09-27T15:12:12;22.90;54.30
34231;DHT22;21574;51.538;-0.084;2022-09-27T15:14:40;22.80;54.30
34231;DHT22;21574;51.538;-0.084;2022-09-27T15:17:17;22.90;54.30
34231;DHT22;21574;51.538;-0.084;2022-09-27T15:20:16;22.90;54.30
34231;DHT22;21574;51.538;-0.084;2022-09-27T15:22:44;22.80;54.20
34231;DHT22;21574;51.538;-0.084;2022-09-27T15:25:17;22.80;54.20
34231;DHT22;21574;51.538;-0.084;2022-09-27T15:27:51;22.90;54.10
34231;DHT22;21574;51.538;-0.084;2022-09-27T15:30:23;22.80;54.10
34231;DHT22;21574;51.538;-0.084;2022-09-27T15:32:51;22.80;54.00
34231;DHT22;21574;51.538;-0.084;2022-09-27T15:35:22;22.80;54.10
34231;DHT22;21574;51.538;-0.084;2022-09-27T15:37:49;22.80;54.10
34231;DHT22;21574;51.538;-0.084;2022-09-27T15:43:02;22.80;54.10
34231;DHT22;21574;51.538;-0.084;2022-09-27T15:47:53;22.90;54.20
34231;DHT22;21574;51.538;-0.084;2022-09-27T15:50:31;22.80;54.10
34231;DHT22;21574;51.538;-0.084;2022-09-27T15:52:57;22.80;54.10
34231;DHT22;21574;51.538;-0.084;2022-09-27T15:55:27;22.80;54.10
34231;DHT22;21574;51.538;-0.084;2022-09-27T16:00:24;22.80;54.10
34231;DHT22;21574;51.538;-0.084;2022-09-27T16:02:50;22.80;54.10
34231;DHT22;21574;51.538;-0.084;2022-09-27T16:05:15;22.80;54.10
34231;DHT22;21574;51.538;-0.084;2022-09-27T16:07:41;22.80;54.10
34231;DHT22;21574;51.538;-0.084;2022-09-27T16:10:37;22.80;54.10
34231;DHT22;21574;51.538;-0.084;2022-09-27T16:13:03;22.80;54.60
34231;DHT22;21574;51.538;-0.084;2022-09-27T16:15:29;22.80;54.10
34231;DHT22;21574;51.538;-0.084;2022-09-27T16:17:55;22.80;54.00
34231;DHT22;21574;51.538;-0.084;2022-09-27T16:20:24;22.80;54.00
34231;DHT22;21574;51.538;-0.084;2022-09-27T16:22:51;22.80;54.10
34231;DHT22;21574;51.538;-0.084;2022-09-27T16:25:18;22.80;54.10
34231;DHT22;21574;51.538;-0.084;2022-09-27T16:27:44;22.80;54.10
34231;DHT22;21574;51.538;-0.084;2022-09-27T16:30:10;22.80;54.00
34231;DHT22;21574;51.538;-0.084;2022-09-27T16:32:43;22.80;54.00
34231;DHT22;21574;51.538;-0.084;2022-09-27T16:35:11;22.80;54.00
34231;DHT22;21574;51.538;-0.084;2022-09-27T16:37:36;22.80;53.90
34231;DHT22;21574;51.538;-0.084;2022-09-27T16:40:03;22.80;54.00
34231;DHT22;21574;51.538;-0.084;2022-09-27T16:42:29;22.80;53.90
34231;DHT22;21574;51.538;-0.084;2022-09-27T16:44:55;22.80;53.90
34231;DHT22;21574;51.538;-0.084;2022-09-27T16:47:21;22.80;53.80
34231;DHT22;21574;51.538;-0.084;2022-09-27T16:49:46;22.80;53.90
34231;DHT22;21574;51.538;-0.084;2022-09-27T16:52:31;22.80;53.90
34231;DHT22;21574;51.538;-0.084;2022-09-27T16:54:57;22.80;53.80
34231;DHT22;21574;51.538;-0.084;2022-09-27T16:57:23;22.80;53.80
34231;DHT22;21574;51.538;-0.084;2022-09-27T16:59:49;22.80;53.90
34231;DHT22;21574;51.538;-0.084;2022-09-27T17:02:15;22.80;53.90
34231;DHT22;21574;51.538;-0.084;2022-09-27T17:04:42;22.90;53.90
34231;DHT22;21574;51.538;-0.084;2022-09-27T17:07:08;22.80;53.90
34231;DHT22;21574;51.538;-0.084;2022-09-27T17:09:33;22.90;54.00
34231;DHT22;21574;51.538;-0.084;2022-09-27T17:11:59;22.90;54.10
34231;DHT22;21574;51.538;-0.084;2022-09-27T17:14:25;22.80;54.10
34231;DHT22;21574;51.538;-0.084;2022-09-27T17:16:51;22.90;54.10
34231;DHT22;21574;51.538;-0.084;2022-09-27T17:19:17;22.90;54.00
34231;DHT22;21574;51.538;-0.084;2022-09-27T17:21:44;22.90;53.50
34231;DHT22;21574;51.538;-0.084;2022-09-27T17:24:10;22.90;53.60
34231;DHT22;21574;51.538;-0.084;2022-09-27T17:26:36;22.80;53.50
34231;DHT22;21574;51.538;-0.084;2022-09-27T17:29:02;22.80;53.60
34231;DHT22;21574;51.538;-0.084;2022-09-27T17:31:29;22.80;54.60
34231;DHT22;21574;51.538;-0.084;2022-09-27T17:33:56;22.80;53.60
34231;DHT22;21574;51.538;-0.084;2022-09-27T17:36:24;22.80;53.60
34231;DHT22;21574;51.538;-0.084;2022-09-27T17:38:51;22.90;53.90
34231;DHT22;21574;51.538;-0.084;2022-09-27T17:41:19;22.90;54.00
34231;DHT22;21574;51.538;-0.084;2022-09-27T17:43:45;22.90;54.10
34231;DHT22;21574;51.538;-0.084;2022-09-27T17:46:16;22.90;54.30
34231;DHT22;21574;51.538;-0.084;2022-09-27T17:48:42;22.90;54.50
34231;DHT22;21574;51.538;-0.084;2022-09-27T17:51:26;22.90;55.10
34231;DHT22;21574;51.538;-0.084;2022-09-27T17:53:52;22.90;55.00
34231;DHT22;21574;51.538;-0.084;2022-09-27T17:56:18;22.90;55.00
34231;DHT22;21574;51.538;-0.084;2022-09-27T17:58:51;22.90;55.00
34231;DHT22;21574;51.538;-0.084;2022-09-27T18:01:18;22.90;55.30
34231;DHT22;21574;51.538;-0.084;2022-09-27T18:03:44;22.90;55.20
34231;DHT22;21574;51.538;-0.084;2022-09-27T18:06:11;22.90;55.10
34231;DHT22;21574;51.538;-0.084;2022-09-27T18:08:38;22.90;55.10
34231;DHT22;21574;51.538;-0.084;2022-09-27T18:11:15;22.90;55.10
34231;DHT22;21574;51.538;-0.084;2022-09-27T18:13:42;22.90;55.10
34231;DHT22;21574;51.538;-0.084;2022-09-27T18:16:08;22.90;55.00
34231;DHT22;21574;51.538;-0.084;2022-09-27T18:18:36;22.90;54.90
34231;DHT22;21574;51.538;-0.084;2022-09-27T18:21:14;22.90;54.70
34231;DHT22;21574;51.538;-0.084;2022-09-27T18:23:41;22.90;54.60
34231;DHT22;21574;51.538;-0.084;2022-09-27T18:26:08;22.90;54.90
34231;DHT22;21574;51.538;-0.084;2022-09-27T18:28:38;22.90;54.90
34231;DHT22;21574;51.538;-0.084;2022-09-27T18:31:09;22.90;55.30
34231;DHT22;21574;51.538;-0.084;2022-09-27T18:33:36;22.90;55.00
34231;DHT22;21574;51.538;-0.084;2022-09-27T18:36:16;22.90;55.10